Time;durP1;ratioP1;P1;durP2;ratioP2;P2;SDS_P1;SDS_P2;PMS_P1;PMS_P2;Temp;Humidity;BMP_temperature;BMP_pressure;BME280_temperature;BME280_humidity;BME280_pressure;Samples;Min_cycle;Max_cycle;Signal;HPM_P1;HPM_P2
2023/11/15 00:02:25;;;;;;;;;;;;;;;8.23;100.00;100368.94;6221691;23;19923;-77
2023/11/15 00:11:24;;;;;;;;;;;;;;;8.31;100.00;100371.47;6216088;23;19923;-77
2023/11/15 00:13:50;;;;;;;;;;;;;;;8.34;100.00;100373.75;6215638;23;20245;-78
2023/11/15 00:16:16;;;;;;;;;;;;;;;8.34;100.00;100379.13;6214457;23;19915;-77
2023/11/15 00:18:42;;;;;;;;;;;;;;;8.31;100.00;100379.50;6214937;23;19958;-77
2023/11/15 00:23:42;;;;;;;;;;;;;;;8.37;100.00;100395.84;6212430;23;19935;-77
2023/11/15 00:26:19;;;;;;;;;;;;;;;8.40;100.00;100400.84;6215790;23;19912;-77
2023/11/15 00:28:50;;;;;;;;;;;;;;;8.39;100.00;100401.84;6215515;23;19924;-77
2023/11/15 00:31:15;;;;;;;;;;;;;;;8.39;100.00;100407.22;6215575;23;20010;-77
2023/11/15 00:33:40;;;;;;;;;;;;;;;8.35;100.00;100410.28;6225952;23;19912;-79
2023/11/15 00:36:08;;;;;;;;;;;;;;;8.37;100.00;100410.13;6223494;23;19916;-79
2023/11/15 00:38:35;;;;;;;;;;;;;;;8.35;100.00;100407.59;6223149;23;19930;-79
2023/11/15 00:41:01;;;;;;;;;;;;;;;8.36;100.00;100408.44;6215945;23;20375;-79
2023/11/15 00:43:26;;;;;;;;;;;;;;;8.35;100.00;100412.16;6214719;23;19912;-79
2023/11/15 00:45:51;;;;;;;;;;;;;;;8.37;100.00;100428.88;6213778;23;19912;-79
2023/11/15 00:48:16;;;;;;;;;;;;;;;8.34;100.00;100432.75;6214015;23;19912;-79
2023/11/15 00:50:43;;;;;;;;;;;;;;;8.36;100.00;100435.28;6213677;23;20002;-79
2023/11/15 00:53:09;;;;;;;;;;;;;;;8.35;100.00;100429.06;6214063;23;19969;-79
2023/11/15 00:55:35;;;;;;;;;;;;;;;8.35;100.00;100433.63;6188123;23;19924;-79
2023/11/15 00:58:03;;;;;;;;;;;;;;;8.35;100.00;100429.06;6214102;23;19923;-79
2023/11/15 01:00:37;;;;;;;;;;;;;;;8.30;100.00;100431.47;6212940;23;19934;-79
2023/11/15 01:03:02;;;;;;;;;;;;;;;8.34;100.00;100426.59;6214774;23;20284;-78
2023/11/15 01:05:28;;;;;;;;;;;;;;;8.31;100.00;100443.88;6215963;23;20399;-79
2023/11/15 01:07:53;;;;;;;;;;;;;;;8.26;100.00;100449.00;6219288;23;20320;-78
2023/11/15 01:10:19;;;;;;;;;;;;;;;8.25;100.00;100452.72;6238201;23;19915;-79
2023/11/15 01:12:47;;;;;;;;;;;;;;;8.21;100.00;100454.09;6220458;23;19912;-79
2023/11/15 01:15:13;;;;;;;;;;;;;;;8.20;100.00;100457.81;6214777;23;19912;-78
2023/11/15 01:17:38;;;;;;;;;;;;;;;8.18;100.00;100449.13;6213391;23;19911;-78
2023/11/15 01:20:04;;;;;;;;;;;;;;;8.17;100.00;100459.03;6187735;23;20333;-78
2023/11/15 01:22:29;;;;;;;;;;;;;;;8.24;100.00;100467.13;6185798;23;19916;-78
2023/11/15 01:24:54;;;;;;;;;;;;;;;8.24;100.00;100479.69;6212898;23;19920;-78
2023/11/15 01:27:20;;;;;;;;;;;;;;;8.26;100.00;100488.38;6214794;23;19951;-79
2023/11/15 01:29:45;;;;;;;;;;;;;;;8.35;100.00;100488.06;6214484;23;20248;-77
2023/11/15 01:32:10;;;;;;;;;;;;;;;8.31;100.00;100470.69;6213675;23;19918;-78
2023/11/15 01:34:36;;;;;;;;;;;;;;;8.35;100.00;100466.59;6222294;23;19926;-79
2023/11/15 01:39:45;;;;;;;;;;;;;;;8.27;100.00;100480.16;6210799;23;19916;-80
2023/11/15 01:42:19;;;;;;;;;;;;;;;8.25;100.00;100484.88;6214928;23;19916;-80
2023/11/15 01:44:44;;;;;;;;;;;;;;;8.25;100.00;100484.88;6212628;23;19938;-80
2023/11/15 01:47:24;;;;;;;;;;;;;;;8.24;100.00;100493.09;6212054;23;20362;-79
2023/11/15 01:49:55;;;;;;;;;;;;;;;8.25;100.00;100498.28;6214799;23;19916;-80
2023/11/15 01:52:20;;;;;;;;;;;;;;;8.25;100.00;100497.44;6186777;23;19912;-79
2023/11/15 01:54:52;;;;;;;;;;;;;;;8.24;100.00;100491.25;6212769;23;19919;-79
2023/11/15 01:57:18;;;;;;;;;;;;;;;8.24;100.00;100496.63;6214627;23;19916;-79
2023/11/15 01:59:43;;;;;;;;;;;;;;;8.22;100.00;100495.97;6211407;23;19962;-79
2023/11/15 02:02:10;;;;;;;;;;;;;;;8.19;100.00;100501.72;6212717;23;19923;-79
2023/11/15 02:04:35;;;;;;;;;;;;;;;8.09;100.00;100506.56;6213499;23;19911;-79
2023/11/15 02:07:01;;;;;;;;;;;;;;;7.99;100.00;100510.38;6212204;23;19987;-79
2023/11/15 02:09:26;;;;;;;;;;;;;;;7.97;100.00;100522.31;6186795;23;19916;-79
2023/11/15 02:11:52;;;;;;;;;;;;;;;7.91;100.00;100518.53;6188165;23;19912;-79
2023/11/15 02:14:18;;;;;;;;;;;;;;;7.95;100.00;100529.69;6213540;23;19938;-79
2023/11/15 02:16:44;;;;;;;;;;;;;;;7.88;100.00;100525.09;6214355;23;19999;-79
2023/11/15 02:19:10;;;;;;;;;;;;;;;7.88;100.00;100534.97;6216068;23;20258;-78
2023/11/15 02:21:35;;;;;;;;;;;;;;;8.03;100.00;100527.75;6214131;23;19990;-79
2023/11/15 02:24:00;;;;;;;;;;;;;;;7.95;100.00;100527.84;6215032;23;19935;-78
2023/11/15 02:26:26;;;;;;;;;;;;;;;7.97;100.00;100547.25;6216076;23;19991;-78
2023/11/15 02:28:54;;;;;;;;;;;;;;;7.93;100.00;100548.66;6214569;23;20256;-79
2023/11/15 02:31:22;;;;;;;;;;;;;;;7.90;100.00;100559.75;6215143;23;19986;-79
2023/11/15 02:33:47;;;;;;;;;;;;;;;7.85;100.00;100559.47;6216109;23;19958;-79
2023/11/15 02:36:13;;;;;;;;;;;;;;;7.82;100.00;100562.53;6212466;23;19912;-79
2023/11/15 02:38:39;;;;;;;;;;;;;;;7.82;100.00;100562.53;6214839;23;19990;-79
2023/11/15 02:41:05;;;;;;;;;;;;;;;7.78;100.00;100561.22;6215154;23;19916;-78
2023/11/15 02:43:30;;;;;;;;;;;;;;;7.80;100.00;100572.59;6214300;23;19912;-79
2023/11/15 02:45:55;;;;;;;;;;;;;;;7.78;100.00;100572.78;6214469;23;19998;-78
2023/11/15 02:48:21;;;;;;;;;;;;;;;7.71;100.00;100571.84;6214305;23;19916;-79
2023/11/15 02:50:46;;;;;;;;;;;;;;;7.63;100.00;100554.03;6214579;23;19914;-79
2023/11/15 02:53:14;;;;;;;;;;;;;;;7.61;100.00;100566.78;6214711;23;19916;-79
2023/11/15 02:55:39;;;;;;;;;;;;;;;7.58;100.00;100575.19;6214839;23;20282;-79
2023/11/15 02:58:05;;;;;;;;;;;;;;;7.59;100.00;100579.50;6214096;23;19915;-79
2023/11/15 03:00:30;;;;;;;;;;;;;;;7.56;100.00;100585.25;6214786;23;19912;-79
2023/11/15 03:02:55;;;;;;;;;;;;;;;7.58;100.00;100596.63;6214594;23;20150;-79
2023/11/15 03:05:32;;;;;;;;;;;;;;;7.63;100.00;100594.22;6214106;23;20364;-78
2023/11/15 03:07:58;;;;;;;;;;;;;;;7.66;100.00;100604.56;6215045;23;19974;-79
2023/11/15 03:10:23;;;;;;;;;;;;;;;7.65;100.00;100599.41;6188211;23;19916;-78
2023/11/15 03:12:49;;;;;;;;;;;;;;;7.72;100.00;100609.19;6214704;23;19912;-79
2023/11/15 03:15:14;;;;;;;;;;;;;;;7.79;100.00;100611.13;6216413;23;19931;-79
2023/11/15 03:17:40;;;;;;;;;;;;;;;7.78;100.00;100610.31;6238816;23;19923;-82
2023/11/15 03:20:06;;;;;;;;;;;;;;;7.74;100.00;100606.31;6223059;23;19924;-82
2023/11/15 03:22:31;;;;;;;;;;;;;;;7.79;100.00;100598.56;6215752;23;19919;-81
2023/11/15 03:24:57;;;;;;;;;;;;;;;7.78;100.00;100604.09;6213877;23;19912;-80
2023/11/15 03:27:23;;;;;;;;;;;;;;;7.72;100.00;100606.53;6188074;23;19926;-81
2023/11/15 03:29:49;;;;;;;;;;;;;;;7.73;100.00;100608.19;6215164;23;20226;-82
2023/11/15 03:32:15;;;;;;;;;;;;;;;7.67;100.00;100614.28;6215279;23;19919;-81
2023/11/15 03:34:40;;;;;;;;;;;;;;;7.67;100.00;100624.16;6218127;23;19982;-82
2023/11/15 03:37:06;;;;;;;;;;;;;;;7.64;100.00;100627.22;6214825;23;19918;-82
2023/11/15 03:39:31;;;;;;;;;;;;;;;7.58;100.00;100618.88;6215403;23;19912;-80
2023/11/15 03:41:57;;;;;;;;;;;;;;;7.63;100.00;100628.22;6216922;23;20390;-81
2023/11/15 03:44:22;;;;;;;;;;;;;;;7.58;100.00;100628.78;6217029;23;19916;-81
2023/11/15 03:46:50;;;;;;;;;;;;;;;7.60;100.00;100629.41;6220309;23;19911;-80
2023/11/15 03:49:15;;;;;;;;;;;;;;;7.61;100.00;100630.25;6218749;23;20249;-81
2023/11/15 03:51:40;;;;;;;;;;;;;;;7.62;100.00;100630.06;6215356;23;19912;-81
2023/11/15 03:54:06;;;;;;;;;;;;;;;7.63;100.00;100634.41;6215317;23;19926;-81
2023/11/15 03:56:31;;;;;;;;;;;;;;;7.65;100.00;100636.91;6216994;23;20344;-81
2023/11/15 03:58:56;;;;;;;;;;;;;;;7.64;100.00;100636.06;6216081;23;20317;-81
2023/11/15 04:01:21;;;;;;;;;;;;;;;7.68;100.00;100641.88;6217434;23;20305;-81
2023/11/15 04:03:46;;;;;;;;;;;;;;;7.67;100.00;100645.59;6215959;23;20325;-82
2023/11/15 04:06:12;;;;;;;;;;;;;;;7.68;100.00;100645.41;6215525;23;20334;-81
2023/11/15 04:08:37;;;;;;;;;;;;;;;7.66;100.00;100649.28;6187797;23;20252;-81
2023/11/15 04:11:02;;;;;;;;;;;;;;;7.67;100.00;100673.22;6216077;23;19916;-81
2023/11/15 04:13:56;;;;;;;;;;;;;;;7.68;100.00;100666.00;6222883;22;19919;-81
2023/11/15 04:19:30;;;;;;;;;;;;;;;7.71;100.00;100676.34;6185438;23;19926;-81
2023/11/15 04:21:55;;;;;;;;;;;;;;;7.73;100.00;100667.13;6183259;23;19995;-81
2023/11/15 04:24:21;;;;;;;;;;;;;;;7.76;100.00;100678.50;6159696;23;19923;-81
2023/11/15 04:27:23;;;;;;;;;;;;;;;7.77;100.00;100677.47;6188240;23;20365;-81
2023/11/15 04:35:26;;;;;;;;;;;;;;;7.78;100.00;100679.13;6186036;23;20356;-81
2023/11/15 04:38:24;;;;;;;;;;;;;;;7.79;100.00;100687.00;6185515;23;19992;-83
2023/11/15 04:43:52;;;;;;;;;;;;;;;8.02;100.00;100692.28;6183675;23;20245;-81
2023/11/15 04:46:26;;;;;;;;;;;;;;;8.12;100.00;100680.47;6183997;23;19916;-82
2023/11/15 04:52:34;;;;;;;;;;;;;;;8.07;100.00;100689.06;6184322;23;20029;-80
2023/11/15 04:55:27;;;;;;;;;;;;;;;8.19;100.00;100687.59;6185500;23;19913;-80
2023/11/15 05:07:24;;;;;;;;;;;;;;;8.50;100.00;100704.50;6183155;23;19916;-82
2023/11/15 05:10:19;;;;;;;;;;;;;;;8.50;100.00;100712.56;6184103;23;19991;-81
2023/11/15 05:12:47;;;;;;;;;;;;;;;8.58;100.00;100717.84;6183729;23;20249;-78
2023/11/15 05:15:18;;;;;;;;;;;;;;;8.58;100.00;100712.47;6185560;23;19919;-78
2023/11/15 05:18:19;;;;;;;;;;;;;;;8.60;100.00;100721.16;6184677;23;19923;-86
2023/11/15 05:21:29;;;;;;;;;;;;;;;8.57;100.00;100718.84;6184107;23;19912;-83
2023/11/15 05:23:30;;;;;;;;;;;;;;;8.60;100.00;100725.69;6172070;23;19912;-79
2023/11/15 05:25:56;;;;;;;;;;;;;;;8.59;100.00;100727.53;6203139;23;19928;-80
2023/11/15 05:28:22;;;;;;;;;;;;;;;8.62;100.00;100724.50;6182751;23;19950;-79
2023/11/15 05:30:47;;;;;;;;;;;;;;;8.62;100.00;100726.31;6183152;23;20365;-78
2023/11/15 05:33:12;;;;;;;;;;;;;;;8.78;100.00;100733.34;6184853;23;20422;-80
2023/11/15 05:35:38;;;;;;;;;;;;;;;8.83;100.00;100733.59;6182110;23;19967;-79
2023/11/15 05:38:03;;;;;;;;;;;;;;;8.77;100.00;100734.38;6183534;23;19916;-80
2023/11/15 05:40:29;;;;;;;;;;;;;;;8.74;100.00;100740.09;6185609;23;20314;-80
2023/11/15 05:42:54;;;;;;;;;;;;;;;8.72;100.00;100742.13;6183387;23;19935;-80
2023/11/15 05:45:19;;;;;;;;;;;;;;;8.72;100.00;100742.13;6183181;23;19916;-80
2023/11/15 05:47:44;;;;;;;;;;;;;;;8.77;100.00;100737.06;6184516;23;19912;-80
2023/11/15 05:50:10;;;;;;;;;;;;;;;8.79;100.00;100730.47;6185585;23;20359;-79
2023/11/15 05:52:37;;;;;;;;;;;;;;;8.89;100.00;100735.53;6184652;23;19912;-79
2023/11/15 05:55:04;;;;;;;;;;;;;;;8.92;100.00;100745.91;6187615;23;19935;-79
2023/11/15 05:57:29;;;;;;;;;;;;;;;8.88;100.00;100757.22;6185345;23;19998;-79
2023/11/15 05:59:54;;;;;;;;;;;;;;;8.77;100.00;100755.84;6184940;23;19986;-79
2023/11/15 06:02:19;;;;;;;;;;;;;;;8.69;100.00;100763.97;6186965;23;19975;-80
2023/11/15 06:04:45;;;;;;;;;;;;;;;8.62;100.00;100754.00;6185866;23;20322;-80
2023/11/15 06:07:10;;;;;;;;;;;;;;;8.65;100.00;100745.56;6185805;23;20509;-80
2023/11/15 06:09:38;;;;;;;;;;;;;;;8.71;100.00;100744.00;6186738;23;20325;-80
2023/11/15 06:12:03;;;;;;;;;;;;;;;8.65;100.00;100745.56;6185915;23;19908;-80
2023/11/15 06:14:28;;;;;;;;;;;;;;;8.68;100.00;100751.56;6184968;23;20273;-80
2023/11/15 06:16:54;;;;;;;;;;;;;;;8.73;100.00;100750.03;6187060;23;19935;-79
2023/11/15 06:19:19;;;;;;;;;;;;;;;8.76;100.00;100754.19;6186163;23;19913;-79
2023/11/15 06:21:44;;;;;;;;;;;;;;;8.77;100.00;100751.28;6184723;23;19917;-79
2023/11/15 06:24:09;;;;;;;;;;;;;;;8.83;100.00;100757.75;6187371;23;19909;-79
2023/11/15 06:26:38;;;;;;;;;;;;;;;8.90;100.00;100760.56;6185559;23;19950;-79
2023/11/15 06:29:18;;;;;;;;;;;;;;;8.88;100.00;100752.66;6186187;22;19951;-79
2023/11/15 06:31:43;;;;;;;;;;;;;;;8.87;100.00;100767.09;6181300;23;20283;-79
2023/11/15 06:34:18;;;;;;;;;;;;;;;8.81;100.00;100767.88;6185022;23;19952;-79
2023/11/15 06:37:01;;;;;;;;;;;;;;;8.73;100.00;100763.44;6186080;23;19912;-79
2023/11/15 06:39:27;;;;;;;;;;;;;;;8.71;100.00;100764.63;6186988;23;19919;-80
2023/11/15 06:41:52;;;;;;;;;;;;;;;8.84;100.00;100767.47;6185574;23;19916;-79
2023/11/15 06:44:17;;;;;;;;;;;;;;;8.76;100.00;100767.59;6185455;23;19919;-79
2023/11/15 06:46:42;;;;;;;;;;;;;;;8.83;100.00;100771.19;6186192;23;19920;-79
2023/11/15 06:49:10;;;;;;;;;;;;;;;8.82;100.00;100766.84;6185373;23;19923;-80
2023/11/15 06:51:37;;;;;;;;;;;;;;;8.77;100.00;100774.63;6185601;23;19923;-79
2023/11/15 06:54:02;;;;;;;;;;;;;;;8.79;100.00;100772.59;6186702;23;19932;-80
2023/11/15 06:56:27;;;;;;;;;;;;;;;8.78;100.00;100782.47;6185459;23;20198;-79
2023/11/15 06:58:52;;;;;;;;;;;;;;;8.71;100.00;100780.72;6185623;23;20391;-79
2023/11/15 07:01:18;;;;;;;;;;;;;;;8.65;100.00;100788.50;6185967;23;19916;-79
2023/11/15 07:03:43;;;;;;;;;;;;;;;8.61;100.00;100792.59;6184755;23;20245;-80
2023/11/15 07:06:09;;;;;;;;;;;;;;;8.62;100.00;100798.78;6187097;23;19992;-80
2023/11/15 07:08:35;;;;;;;;;;;;;;;8.59;100.00;100800.00;6188593;23;19912;-79
2023/11/15 07:11:01;;;;;;;;;;;;;;;8.58;100.00;100811.75;6188672;23;20321;-80
2023/11/15 07:13:27;;;;;;;;;;;;;;;8.58;100.00;100814.44;6187785;23;19920;-80
2023/11/15 07:15:53;;;;;;;;;;;;;;;8.65;100.00;100811.84;6188117;23;19919;-80
2023/11/15 07:18:20;;;;;;;;;;;;;;;8.71;100.00;100810.25;6189981;23;19916;-81
2023/11/15 07:20:46;;;;;;;;;;;;;;;8.75;100.00;100814.25;6189521;23;19943;-80
2023/11/15 07:23:12;;;;;;;;;;;;;;;8.80;100.00;100822.56;6188966;23;19927;-79
2023/11/15 07:25:37;;;;;;;;;;;;;;;8.85;100.00;100822.81;6189672;23;19956;-80
2023/11/15 07:28:19;;;;;;;;;;;;;;;8.90;100.00;100816.94;6205688;22;19971;-81
2023/11/15 07:31:18;;;;;;;;;;;;;;;8.86;100.00;100823.69;6166123;23;19921;-80
2023/11/15 07:34:24;;;;;;;;;;;;;;;8.86;100.00;100829.88;6181657;23;19969;-80
2023/11/15 07:37:17;;;;;;;;;;;;;;;8.84;100.00;100839.13;6160601;23;19920;-80
2023/11/15 07:39:43;;;;;;;;;;;;;;;8.86;100.00;100835.22;6160828;23;19955;-81
2023/11/15 07:42:20;;;;;;;;;;;;;;;8.88;100.00;100846.63;6157300;23;19917;-80
2023/11/15 07:44:54;;;;;;;;;;;;;;;8.90;100.00;100843.78;6156895;23;19920;-81
2023/11/15 07:47:34;;;;;;;;;;;;;;;8.99;100.00;100857.94;6158104;23;19928;-80
2023/11/15 07:50:02;;;;;;;;;;;;;;;8.99;100.00;100857.94;6156871;23;20141;-81
2023/11/15 07:52:27;;;;;;;;;;;;;;;9.01;100.00;100856.72;6155924;23;19909;-81
2023/11/15 07:54:53;;;;;;;;;;;;;;;9.17;100.00;100861.06;6158677;23;19931;-80
2023/11/15 07:57:19;;;;;;;;;;;;;;;9.17;100.00;100869.13;6158803;23;19915;-80
2023/11/15 07:59:45;;;;;;;;;;;;;;;9.11;100.00;100867.16;6164057;23;19939;-80
2023/11/15 08:02:11;;;;;;;;;;;;;;;9.10;100.00;100881.63;6164699;23;19917;-81
2023/11/15 08:04:36;;;;;;;;;;;;;;;9.05;100.00;100884.03;6161898;23;19916;-80
2023/11/15 08:07:02;;;;;;;;;;;;;;;9.04;100.00;100877.84;6156668;23;19913;-81
2023/11/15 08:09:32;;;;;;;;;;;;;;;9.10;100.00;100884.31;6156581;23;20056;-80
2023/11/15 08:11:57;;;;;;;;;;;;;;;9.09;100.00;100891.50;6154475;23;20241;-79
2023/11/15 08:14:22;;;;;;;;;;;;;;;9.07;100.00;100887.34;6154067;23;19916;-80
2023/11/15 08:16:51;;;;;;;;;;;;;;;9.05;100.00;100886.69;6155916;23;19909;-79
2023/11/15 08:19:18;;;;;;;;;;;;;;;9.03;100.00;100894.09;6154664;23;19924;-80
2023/11/15 08:21:44;;;;;;;;;;;;;;;9.00;100.00;100903.38;6155592;23;19919;-79
2023/11/15 08:24:09;;;;;;;;;;;;;;;9.04;100.00;100898.47;6156455;23;20298;-80
2023/11/15 08:26:34;;;;;;;;;;;;;;;9.04;100.00;100906.53;6154067;23;20341;-79
2023/11/15 08:28:59;;;;;;;;;;;;;;;9.09;100.00;100909.50;6156089;23;19928;-79
2023/11/15 08:31:37;;;;;;;;;;;;;;;9.15;100.00;100903.38;6161347;23;19991;-79
2023/11/15 08:34:02;;;;;;;;;;;;;;;9.13;100.00;100916.16;6162890;23;20052;-79
2023/11/15 08:36:28;;;;;;;;;;;;;;;9.16;100.00;100921.16;6163176;23;19925;-79
2023/11/15 08:38:53;;;;;;;;;;;;;;;9.23;100.00;100916.69;6156446;23;19913;-79
2023/11/15 08:41:18;;;;;;;;;;;;;;;9.10;100.00;100920.03;6128186;23;19913;-79
2023/11/15 08:43:43;;;;;;;;;;;;;;;9.20;100.00;100925.13;6154739;23;19944;-79
2023/11/15 08:46:08;;;;;;;;;;;;;;;9.23;100.00;100927.44;6156000;23;19923;-79
2023/11/15 08:48:34;;;;;;;;;;;;;;;9.18;100.00;100937.91;6154117;23;19912;-79
2023/11/15 08:51:00;;;;;;;;;;;;;;;9.12;100.00;100935.97;6154695;23;19924;-79
2023/11/15 08:53:28;;;;;;;;;;;;;;;9.08;100.00;100940.91;6155930;23;19912;-79
2023/11/15 08:55:53;;;;;;;;;;;;;;;9.15;100.00;100942.81;6153431;23;19924;-78
2023/11/15 08:58:19;;;;;;;;;;;;;;;9.10;100.00;100938.00;6154424;23;19924;-77
2023/11/15 09:00:46;;;;;;;;;;;;;;;9.10;100.00;100943.38;6156271;23;19912;-78
2023/11/15 09:03:11;;;;;;;;;;;;;;;9.09;100.00;100936.34;6156540;23;19967;-78
2023/11/15 09:05:37;;;;;;;;;;;;;;;9.01;100.00;100947.16;6157874;23;19912;-78
2023/11/15 09:08:03;;;;;;;;;;;;;;;9.02;100.00;100943.47;6156311;23;19912;-79
2023/11/15 09:10:28;;;;;;;;;;;;;;;9.26;100.00;100955.81;6153371;23;19923;-78
2023/11/15 09:12:58;;;;;;;;;;;;;;;9.24;100.00;100955.97;6154128;23;19912;-78
2023/11/15 09:15:24;;;;;;;;;;;;;;;9.34;100.00;100955.69;6155146;23;19912;-78
2023/11/15 09:17:50;;;;;;;;;;;;;;;9.29;100.00;100966.16;6154499;23;19991;-79
2023/11/15 09:20:26;;;;;;;;;;;;;;;9.30;100.00;100956.25;6155049;23;19967;-78
2023/11/15 09:22:53;;;;;;;;;;;;;;;9.31;100.00;100956.06;6154736;23;19917;-78
2023/11/15 09:25:22;;;;;;;;;;;;;;;9.50;100.00;100957.34;6154681;23;19919;-78
2023/11/15 09:27:50;;;;;;;;;;;;;;;9.54;100.00;100972.06;6154419;23;19919;-79
2023/11/15 09:30:17;;;;;;;;;;;;;;;9.61;100.00;100974.88;6177787;23;20244;-78
2023/11/15 09:32:43;;;;;;;;;;;;;;;9.58;100.00;100972.53;6184448;23;19923;-78
2023/11/15 09:35:13;;;;;;;;;;;;;;;9.82;100.00;100987.53;6183775;23;19912;-79
2023/11/15 09:37:42;;;;;;;;;;;;;;;9.70;100.00;100975.59;6183838;23;20233;-78
2023/11/15 09:40:10;;;;;;;;;;;;;;;9.75;100.00;100983.09;6166914;23;19912;-78
2023/11/15 09:42:37;;;;;;;;;;;;;;;9.84;100.00;100977.41;6202080;23;19916;-78
2023/11/15 09:45:02;;;;;;;;;;;;;;;9.78;100.00;100991.59;6158798;23;19999;-79
2023/11/15 09:47:27;;;;;;;;;;;;;;;9.64;100.00;100993.28;6158135;23;19913;-79
2023/11/15 09:49:52;;;;;;;;;;;;;;;9.67;100.00;100998.28;6184159;23;19919;-79
2023/11/15 09:52:18;;;;;;;;;;;;;;;9.65;100.00;100991.44;6183998;23;19908;-79
2023/11/15 09:54:46;;;;;;;;;;;;;;;9.69;100.00;101000.81;6184883;23;19962;-79
2023/11/15 09:57:11;;;;;;;;;;;;;;;9.97;100.00;101000.09;6184214;23;20037;-79
2023/11/15 09:59:36;;;;;;;;;;;;;;;9.97;100.00;101000.91;6184160;23;20293;-79
2023/11/15 10:02:03;;;;;;;;;;;;;;;10.00;100.00;101002.41;6184971;23;20240;-79
2023/11/15 10:04:28;;;;;;;;;;;;;;;9.94;100.00;101011.22;6183671;23;20328;-79
2023/11/15 10:06:55;;;;;;;;;;;;;;;10.19;100.00;101005.50;6183581;23;19912;-79
2023/11/15 10:09:36;;;;;;;;;;;;;;;9.91;100.00;101006.22;6184737;23;19923;-79
2023/11/15 10:12:03;;;;;;;;;;;;;;;9.91;100.00;101014.28;6183629;23;19912;-79
2023/11/15 10:14:30;;;;;;;;;;;;;;;10.16;100.00;101009.41;6184746;23;19912;-79
2023/11/15 10:16:55;;;;;;;;;;;;;;;10.26;100.00;101015.31;6184880;23;19915;-79
2023/11/15 10:19:21;;;;;;;;;;;;;;;10.34;100.00;101008.13;6183128;23;19916;-79
2023/11/15 10:21:56;;;;;;;;;;;;;;;10.22;100.00;101018.59;6184479;23;19983;-79
2023/11/15 10:24:22;;;;;;;;;;;;;;;10.34;100.00;101003.59;6184760;23;19920;-79
2023/11/15 10:26:47;;;;;;;;;;;;;;;10.02;100.00;101001.19;6182773;23;20260;-80
2023/11/15 10:29:12;;;;;;;;;;;;;;;10.20;100.00;101013.38;6184917;23;19924;-80
2023/11/15 10:32:06;;;;;;;;;;;;;;;10.10;100.00;101005.63;6184398;23;20384;-79
2023/11/15 10:34:32;;;;;;;;;;;;;;;10.07;100.00;101008.69;6164528;23;20069;-79
2023/11/15 10:37:01;;;;;;;;;;;;;;;10.12;100.00;101008.94;6186467;23;19935;-79
2023/11/15 10:39:26;;;;;;;;;;;;;;;9.97;100.00;101010.84;6186132;23;19919;-79
2023/11/15 10:41:51;;;;;;;;;;;;;;;9.97;100.00;101022.44;6185022;23;20245;-79
2023/11/15 10:44:18;;;;;;;;;;;;;;;10.06;100.00;101025.84;6160008;23;20191;-79
2023/11/15 10:46:43;;;;;;;;;;;;;;;10.24;100.00;101027.28;6186332;23;19939;-79
2023/11/15 10:49:09;;;;;;;;;;;;;;;10.48;100.00;101019.91;6185317;23;20524;-78
2023/11/15 10:51:37;;;;;;;;;;;;;;;10.70;100.00;101026.94;6186437;23;19908;-79
2023/11/15 10:54:21;;;;;;;;;;;;;;;10.54;100.00;101019.16;6184892;22;19924;-80
2023/11/15 10:56:49;;;;;;;;;;;;;;;10.54;100.00;101021.84;6186155;23;19928;-80
2023/11/15 10:59:18;;;;;;;;;;;;;;;10.62;100.00;101024.38;6182643;23;19924;-80
2023/11/15 11:01:44;;;;;;;;;;;;;;;10.71;100.00;101028.63;6185865;23;19912;-80
2023/11/15 11:04:12;;;;;;;;;;;;;;;10.68;100.00;101023.63;6186423;23;20318;-80
2023/11/15 11:06:47;;;;;;;;;;;;;;;10.65;100.00;101024.00;6176072;23;19999;-80
2023/11/15 11:09:21;;;;;;;;;;;;;;;10.84;100.00;101016.28;6184490;23;19970;-79
2023/11/15 11:11:59;;;;;;;;;;;;;;;10.59;100.00;101014.03;6176784;23;20189;-79
2023/11/15 11:14:28;;;;;;;;;;;;;;;10.27;100.00;101018.81;6185579;23;19913;-79
2023/11/15 11:16:56;;;;;;;;;;;;;;;10.33;100.00;101012.69;6184599;23;20325;-78
2023/11/15 11:19:22;;;;;;;;;;;;;;;10.29;100.00;101027.53;6186688;23;19970;-79
2023/11/15 11:22:03;;;;;;;;;;;;;;;10.40;100.00;101021.72;6187187;23;19912;-78
2023/11/15 11:24:34;;;;;;;;;;;;;;;10.48;100.00;101014.53;6186763;23;19953;-78
2023/11/15 11:27:27;;;;;;;;;;;;;;;10.66;100.00;101009.50;6188954;23;19934;-78
2023/11/15 11:29:56;;;;;;;;;;;;;;;11.12;100.00;101005.53;6189171;23;19912;-78
2023/11/15 11:32:26;;;;;;;;;;;;;;;11.20;100.00;101020.69;6189327;23;19921;-78
2023/11/15 11:35:25;;;;;;;;;;;;;;;11.15;100.00;101017.75;6187471;23;19924;-78
2023/11/15 11:37:53;;;;;;;;;;;;;;;11.34;100.00;101024.31;6186858;23;19916;-78
2023/11/15 11:40:23;;;;;;;;;;;;;;;11.14;100.00;101016.09;6185217;23;19912;-79
2023/11/15 11:43:10;;;;;;;;;;;;;;;10.76;100.00;101018.13;6185726;23;19912;-79
2023/11/15 11:45:36;;;;;;;;;;;;;;;10.89;100.00;101016.53;6184311;23;19916;-79
2023/11/15 11:48:02;;;;;;;;;;;;;;;10.64;100.00;101014.25;6190085;23;19981;-79
2023/11/15 11:50:33;;;;;;;;;;;;;;;10.47;100.00;101016.38;6203582;23;19912;-79
2023/11/15 11:52:58;;;;;;;;;;;;;;;10.68;100.00;101012.03;6190627;23;19924;-78
2023/11/15 11:55:23;;;;;;;;;;;;;;;10.61;100.00;101017.31;6187147;23;20054;-78
2023/11/15 11:57:49;;;;;;;;;;;;;;;10.64;100.00;101027.72;6183673;23;19908;-78
2023/11/15 12:00:18;;;;;;;;;;;;;;;10.79;100.00;101026.81;6186854;23;19987;-78
2023/11/15 12:02:53;;;;;;;;;;;;;;;10.88;100.00;101022.97;6186674;23;19988;-80
2023/11/15 12:05:24;;;;;;;;;;;;;;;11.21;100.00;101025.06;6187266;23;19962;-78
2023/11/15 12:07:50;;;;;;;;;;;;;;;11.13;100.00;101019.81;6187972;23;19966;-79
2023/11/15 12:10:16;;;;;;;;;;;;;;;11.26;100.00;101019.06;6184869;23;19920;-79
2023/11/15 12:12:41;;;;;;;;;;;;;;;11.48;98.49;101014.44;6183621;23;19919;-78
2023/11/15 12:15:15;;;;;;;;;;;;;;;12.46;93.95;101017.91;6186057;23;19920;-78
2023/11/15 12:17:41;;;;;;;;;;;;;;;12.82;91.14;101014.84;6184761;23;19923;-77
2023/11/15 12:20:12;;;;;;;;;;;;;;;14.09;84.61;101021.84;6183888;23;19912;-78
2023/11/15 12:22:42;;;;;;;;;;;;;;;14.64;83.05;101022.31;6184462;23;19913;-78
2023/11/15 12:25:09;;;;;;;;;;;;;;;16.51;72.19;101014.00;6178692;23;19982;-78
2023/11/15 12:27:37;;;;;;;;;;;;;;;16.57;70.80;101016.84;6156327;23;19913;-78
2023/11/15 12:30:02;;;;;;;;;;;;;;;15.84;72.54;101008.63;6185624;23;19912;-77
2023/11/15 12:32:28;;;;;;;;;;;;;;;15.67;73.31;101013.84;6184422;23;19919;-78
2023/11/15 12:35:14;;;;;;;;;;;;;;;14.75;75.06;101018.91;6184128;23;19916;-78
2023/11/15 12:37:42;;;;;;;;;;;;;;;14.44;77.79;101017.88;6188709;23;19947;-78
2023/11/15 12:40:17;;;;;;;;;;;;;;;14.87;76.11;101021.75;6184003;23;19970;-78
2023/11/15 12:42:43;;;;;;;;;;;;;;;15.21;74.53;101022.25;6185036;23;19940;-77
2023/11/15 12:45:08;;;;;;;;;;;;;;;14.61;76.05;101018.19;6185577;23;19916;-77
2023/11/15 12:47:33;;;;;;;;;;;;;;;15.29;71.75;101016.56;6170366;23;19916;-77
2023/11/15 12:50:03;;;;;;;;;;;;;;;14.89;74.05;101016.13;6184756;23;19982;-77
2023/11/15 12:52:38;;;;;;;;;;;;;;;14.95;73.88;101007.91;6185427;23;20265;-78
2023/11/15 12:55:03;;;;;;;;;;;;;;;14.62;74.79;101003.59;6184910;23;19920;-78
2023/11/15 12:57:28;;;;;;;;;;;;;;;13.97;76.16;101009.19;6184022;23;19966;-77
2023/11/15 12:59:54;;;;;;;;;;;;;;;12.62;82.02;101011.31;6185006;23;20298;-78
2023/11/15 13:02:23;;;;;;;;;;;;;;;12.14;85.75;101005.00;6201124;23;19904;-78
2023/11/15 13:04:49;;;;;;;;;;;;;;;11.87;86.67;101017.53;6204023;23;19943;-78
2023/11/15 13:07:15;;;;;;;;;;;;;;;11.24;90.11;101021.97;6196488;23;19916;-77
2023/11/15 13:09:40;;;;;;;;;;;;;;;11.29;90.27;101016.00;6182588;23;20175;-77
2023/11/15 13:12:06;;;;;;;;;;;;;;;10.84;93.02;101021.69;6184286;23;19979;-76
2023/11/15 13:14:31;;;;;;;;;;;;;;;10.79;91.77;101014.19;6183053;23;19935;-77
2023/11/15 13:16:58;;;;;;;;;;;;;;;10.60;93.63;101029.13;6183495;23;20237;-77
2023/11/15 13:19:24;;;;;;;;;;;;;;;10.44;93.11;101033.75;6183569;23;19912;-77